Midland, TX

8:50 PM CDT on August 03, 2015 (GMT -0500)
Midland International | | Change Station
CLOSE
Current Station
Airport
Location: Midland,
Elevation: 2861 ft
Nearby Weather Stations

Elev 2861 ft 31.95 °N, 102.21 °W | Updated 57 minutes ago

Partly Cloudy
Partly Cloudy
94 °F
Feels Like 93 °F
N
15
Wind Variable Wind from SE

Today
High -- | Low -- °F
--% Chance of Precip.
Yesterday
High -- | Low -- °F
Precip. -- in
7:05 AM 8:44 PM
Waning Gibbous, 82% visible
Pressure 29.73 in
Visibility 10.0 miles
Clouds Few 8500 ft
Heat Index 93 °F
Dew Point 59 °F
Humidity 31%
Rainfall 0.04 in
Snow Depth Not available.
UV 0 out of 12
Pollen 5.50 out of 12
Air Quality Not available.
Flu Activity Not available.
METAR KMAF 040053Z AUTO 13013KT 10SM FEW085 34/15 A2989 RMK AO2 SLP067 T03440150

More Conditions Fewer Conditions

Pressure 29.73 in
Visibility 10.0 miles
Clouds Few 8500 ft
Heat Index 93 °F
Dew Point 59 °F
Humidity 31%
Rainfall 0.04 in
Snow Depth Not available.
UV 0 out of 12
Pollen 5.50 out of 12
Air Quality Not available.
Flu Activity Not available.
METAR KMAF 040053Z AUTO 13013KT 10SM FEW085 34/15 A2989 RMK AO2 SLP067 T03440150

More Conditions Fewer Conditions

10-Day Weather Forecast

×

Almanac

Astronomy

Aug. 03, 2015 Rise Set
Actual Time
Civil Twilight
Nautical Twilight
Astronomical Twilight
Moon
Length of Visible Light
Length of Day
Tomorrow will be .
, % of the Moon is Illuminated

Today's Extremes

State Highs State Lows

Community

WunderPhotos

Upload Photos

1,843,820 photos uploaded!

WunderBlogs® & News

Nearby

Air Quality

  Air Quality AQ Index Pollutant
Not available.

Snow Depth

Station Depth Elevation

Earthquake Activity

City Distance Mag. Time & Date
Minimum magnitude displayed is 2.5.

Coastal Water Temperatures

Place Temperature

Stations

Nearby Weather Stations

Station Location Temp. Windchill Dew Point Humidity Wind Precip. Elev Updated Type